createdAt,value
2018-03-30T00:00:39.876Z,0.09
2018-03-30T00:01:39.766Z,0.07
2018-03-30T00:03:32.645Z,0.05
2018-03-30T00:04:32.529Z,0.02
2018-03-30T00:06:25.256Z,-0.09
2018-03-30T00:07:25.157Z,-0.07
2018-03-30T00:09:17.944Z,0.04
2018-03-30T00:10:17.821Z,0.04
2018-03-30T00:12:10.787Z,0.12
2018-03-30T00:13:10.691Z,0.12
2018-03-30T00:15:03.439Z,0.02
2018-03-30T00:16:03.319Z,0.11
2018-03-30T00:17:56.575Z,0.15
2018-03-30T00:18:56.489Z,0.04
2018-03-30T00:20:49.231Z,-0.01
2018-03-30T00:21:49.113Z,-0.01
2018-03-30T00:23:41.878Z,-0.07
2018-03-30T00:24:41.759Z,-0.04
2018-03-30T00:26:34.537Z,-0.13
2018-03-30T00:27:34.409Z,-0.11
2018-03-30T00:29:27.177Z,-0.17
2018-03-30T00:30:27.085Z,-0.14
2018-03-30T00:32:19.806Z,-0.01
2018-03-30T00:33:19.712Z,-0.10
2018-03-30T00:35:12.459Z,-0.01
2018-03-30T00:36:12.341Z,-0.01
2018-03-30T00:38:05.103Z,-0.10
2018-03-30T00:39:05.004Z,-0.11
2018-03-30T00:40:57.765Z,-0.10
2018-03-30T00:41:57.651Z,-0.13
2018-03-30T00:43:50.408Z,-0.13
2018-03-30T00:44:50.284Z,-0.11
2018-03-30T00:46:43.045Z,-0.11
2018-03-30T00:47:42.929Z,-0.03
2018-03-30T00:49:35.690Z,-0.06
2018-03-30T00:50:35.575Z,-0.11
2018-03-30T00:52:31.311Z,-0.16
2018-03-30T00:53:31.200Z,-0.10
2018-03-30T00:55:23.975Z,-0.11
2018-03-30T00:56:23.844Z,-0.14
2018-03-30T00:58:17.112Z,-0.17
2018-03-30T00:59:17.008Z,-0.25
2018-03-30T01:01:09.747Z,-0.20
2018-03-30T01:02:09.650Z,-0.28
2018-03-30T01:04:02.411Z,-0.29
2018-03-30T01:05:02.304Z,-0.28
2018-03-30T01:06:55.161Z,-0.21
2018-03-30T01:07:54.942Z,-0.22
2018-03-30T01:09:47.707Z,-0.25
2018-03-30T01:10:47.603Z,-0.27
2018-03-30T01:12:40.925Z,-0.29
2018-03-30T01:13:40.753Z,-0.31
2018-03-30T01:15:34.032Z,-0.17
2018-03-30T01:16:33.939Z,-0.21
2018-03-30T01:18:27.193Z,-0.20
2018-03-30T01:19:27.067Z,-0.16
2018-03-30T01:21:19.818Z,-0.14
2018-03-30T01:22:19.716Z,-0.09
2018-03-30T01:24:12.995Z,-0.11
2018-03-30T01:25:12.875Z,-0.16
2018-03-30T01:27:05.631Z,-0.07
2018-03-30T01:28:05.526Z,-0.09
2018-03-30T01:29:58.297Z,-0.17
2018-03-30T01:30:58.184Z,-0.11
2018-03-30T01:32:52.459Z,-0.20
2018-03-30T01:33:52.356Z,-0.21
2018-03-30T01:35:45.646Z,-0.13
2018-03-30T01:36:45.507Z,-0.17
2018-03-30T01:38:38.790Z,-0.20
2018-03-30T01:39:38.678Z,-0.17
2018-03-30T01:41:31.430Z,-0.24
2018-03-30T01:42:31.335Z,-0.28
2018-03-30T01:44:24.576Z,-0.16
2018-03-30T01:45:24.477Z,-0.24
2018-03-30T01:47:17.239Z,-0.25
2018-03-30T01:48:17.128Z,-0.24
2018-03-30T01:50:09.873Z,-0.28
2018-03-30T01:51:09.767Z,-0.25
2018-03-30T01:53:02.535Z,-0.40
2018-03-30T01:54:02.427Z,-0.38
2018-03-30T01:55:55.176Z,-0.34
2018-03-30T01:56:55.127Z,-0.35
2018-03-30T01:58:47.826Z,-0.29
2018-03-30T01:59:47.726Z,-0.38
2018-03-30T02:01:40.460Z,-0.28
2018-03-30T02:02:40.357Z,-0.25
2018-03-30T02:04:33.151Z,-0.24
2018-03-30T02:05:33.012Z,-0.24
2018-03-30T02:07:26.278Z,-0.17
2018-03-30T02:08:26.162Z,-0.21
2018-03-30T02:10:18.948Z,-0.17
2018-03-30T02:11:18.811Z,-0.20
2018-03-30T02:13:11.573Z,-0.10
2018-03-30T02:14:11.481Z,-0.09
2018-03-30T02:16:04.220Z,-0.13
2018-03-30T02:17:04.107Z,-0.09
2018-03-30T02:18:56.864Z,-0.10
2018-03-30T02:19:56.758Z,0.02
2018-03-30T02:21:49.526Z,0.11
2018-03-30T02:22:49.421Z,0.12
2018-03-30T02:24:42.155Z,0.14
2018-03-30T02:25:42.050Z,0.17
2018-03-30T02:27:34.822Z,0.11
2018-03-30T02:28:34.710Z,0.08
2018-03-30T02:30:27.442Z,0.14
2018-03-30T02:31:27.348Z,-0.03
2018-03-30T02:33:20.148Z,-0.07
2018-03-30T02:34:19.996Z,0.05
2018-03-30T02:36:12.864Z,-0.01
2018-03-30T02:37:12.642Z,-0.01
2018-03-30T02:39:06.928Z,-0.11
2018-03-30T02:40:06.845Z,-0.07
2018-03-30T02:41:59.631Z,0.04
2018-03-30T02:42:59.473Z,-0.06
2018-03-30T02:44:52.218Z,0.08
2018-03-30T02:45:52.131Z,0.08
2018-03-30T02:47:44.877Z,0.14
2018-03-30T02:48:44.775Z,0.22
2018-03-30T02:50:37.529Z,0.35
2018-03-30T02:51:37.405Z,0.29
2018-03-30T02:53:30.178Z,0.36
2018-03-30T02:54:30.056Z,0.47
2018-03-30T02:56:22.805Z,0.50
2018-03-30T02:57:22.720Z,0.47
2018-03-30T02:59:15.578Z,0.43
2018-03-30T03:00:15.362Z,0.45
2018-03-30T03:02:08.110Z,0.51
2018-03-30T03:03:08.016Z,0.59
2018-03-30T03:05:00.758Z,0.64
2018-03-30T03:06:00.653Z,0.62
2018-03-30T03:07:53.903Z,0.66
2018-03-30T03:08:53.811Z,0.73
2018-03-30T03:10:46.587Z,0.67
2018-03-30T03:11:46.451Z,0.66
2018-03-30T03:13:39.211Z,0.70
2018-03-30T03:14:39.099Z,0.70
2018-03-30T03:16:31.862Z,0.72
2018-03-30T03:17:31.741Z,0.60
2018-03-30T03:19:24.510Z,0.66
2018-03-30T03:20:24.389Z,0.64
2018-03-30T03:22:17.166Z,0.74
2018-03-30T03:23:17.060Z,0.78
2018-03-30T03:25:10.322Z,0.88
2018-03-30T03:26:10.205Z,0.98
2018-03-30T03:28:02.966Z,1.12
2018-03-30T03:29:02.847Z,1.27
2018-03-30T03:30:55.600Z,1.30
2018-03-30T03:31:55.500Z,1.36
2018-03-30T03:33:48.280Z,1.42
2018-03-30T03:34:48.141Z,1.44
2018-03-30T03:36:40.895Z,1.44
2018-03-30T03:37:40.790Z,1.41
2018-03-30T03:39:33.553Z,1.38
2018-03-30T03:40:33.444Z,1.42
2018-03-30T03:42:26.310Z,1.20
2018-03-30T03:43:26.084Z,1.34
2018-03-30T03:45:18.836Z,1.21
2018-03-30T03:46:18.770Z,1.18
2018-03-30T03:48:11.508Z,1.09
2018-03-30T03:49:11.380Z,1.12
2018-03-30T03:51:04.125Z,1.10
2018-03-30T03:52:04.027Z,1.08
2018-03-30T03:53:56.790Z,1.00
2018-03-30T03:54:56.682Z,1.00
2018-03-30T03:56:49.428Z,0.94
2018-03-30T03:57:49.338Z,0.82
2018-03-30T03:59:42.097Z,0.82
2018-03-30T04:00:41.974Z,0.87
2018-03-30T04:02:35.255Z,0.88
2018-03-30T04:03:35.126Z,0.80
2018-03-30T04:05:27.904Z,0.76
2018-03-30T04:06:27.788Z,0.74
2018-03-30T04:08:21.039Z,0.74
2018-03-30T04:09:20.930Z,0.76
2018-03-30T04:11:13.704Z,0.76
2018-03-30T04:12:13.593Z,0.78
2018-03-30T04:14:06.334Z,0.80
2018-03-30T04:15:06.231Z,1.00
2018-03-30T04:16:59.769Z,1.09
2018-03-30T04:17:59.341Z,1.20
2018-03-30T04:19:52.956Z,1.27
2018-03-30T04:20:52.771Z,1.34
2018-03-30T04:22:45.099Z,1.44
2018-03-30T04:23:44.988Z,1.46
2018-03-30T04:25:37.742Z,1.63
2018-03-30T04:26:37.644Z,1.60
2018-03-30T04:28:30.398Z,1.63
2018-03-30T04:29:30.285Z,1.63
2018-03-30T04:31:23.056Z,1.71
2018-03-30T04:32:22.926Z,1.77
2018-03-30T04:34:15.698Z,1.78
2018-03-30T04:35:15.583Z,1.84
2018-03-30T04:37:08.345Z,2.06
2018-03-30T04:38:08.224Z,2.10
2018-03-30T04:40:01.002Z,2.01
2018-03-30T04:41:00.879Z,2.06
2018-03-30T04:42:54.160Z,1.92
2018-03-30T04:43:54.042Z,1.91
2018-03-30T04:45:47.347Z,1.71
2018-03-30T04:46:47.206Z,1.63
2018-03-30T04:48:39.961Z,1.60
2018-03-30T04:49:39.858Z,1.48
2018-03-30T04:51:32.594Z,1.49
2018-03-30T04:52:32.484Z,1.44
2018-03-30T04:54:25.243Z,1.31
2018-03-30T04:55:25.202Z,1.44
2018-03-30T04:57:17.901Z,1.34
2018-03-30T04:58:17.780Z,1.21
2018-03-30T05:00:10.533Z,1.34
2018-03-30T05:01:10.443Z,1.18
2018-03-30T05:03:03.220Z,1.09
2018-03-30T05:04:03.092Z,1.12
2018-03-30T05:05:55.851Z,1.13
2018-03-30T05:06:55.716Z,1.17
2018-03-30T05:08:48.490Z,1.12
2018-03-30T05:09:48.365Z,1.06
2018-03-30T05:11:41.143Z,1.13
2018-03-30T05:12:41.012Z,1.13
2018-03-30T05:14:33.801Z,1.16
2018-03-30T05:15:33.664Z,1.09
2018-03-30T05:17:26.403Z,1.00
2018-03-30T05:18:26.307Z,1.03
2018-03-30T05:20:19.064Z,1.05
2018-03-30T05:21:18.949Z,1.02
2018-03-30T05:23:11.709Z,0.99
2018-03-30T05:24:11.601Z,1.02
2018-03-30T05:26:04.365Z,1.10
2018-03-30T05:27:04.261Z,1.10
2018-03-30T05:28:57.196Z,1.10
2018-03-30T05:29:57.000Z,1.13
2018-03-30T05:31:49.778Z,1.06
2018-03-30T05:32:49.648Z,1.12
2018-03-30T05:34:42.398Z,1.16
2018-03-30T05:35:42.322Z,1.10
2018-03-30T05:37:35.071Z,1.17
2018-03-30T05:38:34.941Z,1.17
2018-03-30T05:40:27.775Z,1.27
2018-03-30T05:41:27.581Z,1.23
2018-03-30T05:43:20.366Z,1.23
2018-03-30T05:44:20.227Z,1.24
2018-03-30T05:46:12.986Z,1.35
2018-03-30T05:47:12.877Z,1.28
2018-03-30T05:49:07.190Z,1.36
2018-03-30T05:50:07.080Z,1.35
2018-03-30T05:51:59.811Z,1.46
2018-03-30T05:52:59.732Z,1.45
2018-03-30T05:54:53.452Z,1.46
2018-03-30T05:55:52.379Z,1.46
2018-03-30T05:57:45.619Z,1.45
2018-03-30T05:58:45.510Z,1.52
2018-03-30T06:00:38.304Z,1.60
2018-03-30T06:01:38.170Z,1.66
2018-03-30T06:03:30.942Z,1.63
2018-03-30T06:04:30.817Z,1.73
2018-03-30T06:06:24.090Z,1.73
2018-03-30T06:07:23.968Z,1.75
2018-03-30T06:09:16.748Z,1.82
2018-03-30T06:10:16.618Z,1.75
2018-03-30T06:12:09.366Z,1.91
2018-03-30T06:13:09.269Z,1.85
2018-03-30T06:15:02.061Z,1.87
2018-03-30T06:16:01.910Z,1.97
2018-03-30T06:17:55.188Z,2.10
2018-03-30T06:18:55.161Z,2.04
2018-03-30T06:20:49.382Z,2.03
2018-03-30T06:21:49.250Z,2.03
2018-03-30T06:23:42.011Z,2.07
2018-03-30T06:24:41.902Z,2.12
2018-03-30T06:26:34.679Z,2.10
2018-03-30T06:27:34.570Z,2.07
2018-03-30T06:29:27.830Z,2.24
2018-03-30T06:30:27.705Z,2.17
2018-03-30T06:32:22.051Z,2.24
2018-03-30T06:33:21.889Z,2.29
2018-03-30T06:35:14.645Z,2.45
2018-03-30T06:36:14.552Z,2.48
2018-03-30T06:38:07.408Z,2.76
2018-03-30T06:39:07.189Z,2.73
2018-03-30T06:40:59.926Z,2.94
2018-03-30T06:41:59.855Z,3.04
2018-03-30T06:43:54.130Z,3.37
2018-03-30T06:44:54.026Z,3.46
2018-03-30T06:46:47.273Z,3.66
2018-03-30T06:47:47.181Z,3.64
2018-03-30T06:49:40.449Z,3.69
2018-03-30T06:50:40.344Z,3.78
2018-03-30T06:52:33.110Z,3.72
2018-03-30T06:53:32.987Z,3.84
2018-03-30T06:55:26.258Z,3.82
2018-03-30T06:56:26.136Z,3.72
2018-03-30T06:58:18.888Z,3.87
2018-03-30T06:59:18.812Z,4.03
2018-03-30T07:01:11.577Z,4.08
2018-03-30T07:02:11.436Z,4.03
2018-03-30T07:04:04.188Z,4.17
2018-03-30T07:05:04.081Z,4.28
2018-03-30T07:06:56.846Z,4.49
2018-03-30T07:07:56.764Z,4.60
2018-03-30T07:09:49.487Z,4.75
2018-03-30T07:10:49.382Z,4.79
2018-03-30T07:12:42.159Z,4.82
2018-03-30T07:13:42.033Z,4.98
2018-03-30T07:15:34.783Z,5.09
2018-03-30T07:16:34.679Z,5.11
2018-03-30T07:18:27.958Z,5.15
2018-03-30T07:19:27.834Z,5.12
2018-03-30T07:21:21.117Z,5.03
2018-03-30T07:22:20.992Z,5.03
2018-03-30T07:24:14.259Z,4.91
2018-03-30T07:25:14.164Z,4.82
2018-03-30T07:27:07.002Z,4.61
2018-03-30T07:28:06.802Z,4.61
2018-03-30T07:29:59.584Z,4.59
2018-03-30T07:30:59.446Z,4.59
2018-03-30T07:32:52.715Z,4.60
2018-03-30T07:33:52.614Z,4.66
2018-03-30T07:35:45.460Z,4.74
2018-03-30T07:36:45.254Z,4.75
2018-03-30T07:38:38.001Z,4.85
2018-03-30T07:39:37.911Z,4.98
2018-03-30T07:41:30.668Z,5.14
2018-03-30T07:42:30.548Z,5.07
2018-03-30T07:44:23.299Z,5.27
2018-03-30T07:45:23.201Z,5.33
2018-03-30T07:47:15.956Z,5.51
2018-03-30T07:48:15.849Z,5.50
2018-03-30T07:50:08.610Z,5.79
2018-03-30T07:51:08.501Z,5.80
2018-03-30T07:53:01.246Z,5.90
2018-03-30T07:54:01.150Z,6.05
2018-03-30T07:55:53.901Z,6.13
2018-03-30T07:56:53.786Z,6.11
2018-03-30T07:58:46.544Z,6.27
2018-03-30T07:59:46.441Z,6.27
2018-03-30T08:01:40.184Z,6.15
2018-03-30T08:02:39.108Z,6.05
2018-03-30T08:04:31.947Z,6.11
2018-03-30T08:05:31.732Z,6.02
2018-03-30T08:07:24.480Z,6.02
2018-03-30T08:08:24.369Z,5.93
2018-03-30T08:10:17.135Z,5.84
2018-03-30T08:11:17.043Z,5.79
2018-03-30T08:13:09.774Z,5.77
2018-03-30T08:14:09.683Z,5.76
2018-03-30T08:16:03.461Z,5.93
2018-03-30T08:17:03.335Z,5.88
2018-03-30T08:18:56.097Z,5.98
2018-03-30T08:19:55.987Z,5.97
2018-03-30T08:21:48.833Z,6.08
2018-03-30T08:22:48.630Z,6.02
2018-03-30T08:24:41.380Z,6.05
2018-03-30T08:25:41.282Z,6.00
2018-03-30T08:27:34.567Z,5.91
2018-03-30T08:28:34.441Z,6.05
2018-03-30T08:30:27.742Z,6.13
2018-03-30T08:31:27.624Z,6.15
2018-03-30T08:33:20.365Z,6.28
2018-03-30T08:34:20.271Z,6.28
2018-03-30T08:36:12.994Z,6.46
2018-03-30T08:37:12.899Z,6.56
2018-03-30T08:39:05.679Z,6.61
2018-03-30T08:40:05.568Z,6.67
2018-03-30T08:41:58.327Z,6.74
2018-03-30T08:42:58.199Z,6.91
2018-03-30T08:44:50.945Z,7.10
2018-03-30T08:45:50.854Z,7.24
2018-03-30T08:47:43.583Z,7.44
2018-03-30T08:48:43.492Z,7.68
2018-03-30T08:50:36.252Z,7.83
2018-03-30T08:51:36.126Z,7.94
2018-03-30T08:53:28.874Z,7.98
2018-03-30T08:54:28.782Z,8.04
2018-03-30T08:56:21.553Z,8.17
2018-03-30T08:57:21.430Z,8.23
2018-03-30T08:59:14.207Z,8.39
2018-03-30T09:00:14.073Z,8.50
2018-03-30T09:02:06.819Z,8.62
2018-03-30T09:03:06.722Z,8.77
2018-03-30T09:04:59.604Z,8.90
2018-03-30T09:05:59.469Z,8.99
2018-03-30T09:07:52.223Z,9.08
2018-03-30T09:08:52.119Z,9.30
2018-03-30T09:10:44.896Z,9.50
2018-03-30T09:11:44.774Z,9.59
2018-03-30T09:13:37.509Z,9.65
2018-03-30T09:14:37.409Z,9.75
2018-03-30T09:16:30.292Z,9.84
2018-03-30T09:17:30.164Z,9.88
2018-03-30T09:19:22.912Z,9.94
2018-03-30T09:20:22.806Z,9.98
2018-03-30T09:22:15.575Z,9.94
2018-03-30T09:23:15.457Z,9.99
2018-03-30T09:25:08.196Z,10.02
2018-03-30T09:26:08.097Z,9.99
2018-03-30T09:28:00.873Z,10.03
2018-03-30T09:29:00.767Z,10.02
2018-03-30T09:30:53.490Z,10.01
2018-03-30T09:31:53.395Z,10.16
2018-03-30T09:33:46.248Z,10.03
2018-03-30T09:34:46.141Z,10.09
2018-03-30T09:36:39.456Z,10.01
2018-03-30T09:37:38.824Z,10.02
2018-03-30T09:39:31.651Z,10.18
2018-03-30T09:40:31.567Z,10.17
2018-03-30T09:42:24.290Z,10.31
2018-03-30T09:43:24.196Z,10.23
2018-03-30T09:45:16.973Z,10.24
2018-03-30T09:46:16.833Z,10.30
2018-03-30T09:48:09.581Z,10.39
2018-03-30T09:49:09.482Z,10.38
2018-03-30T09:51:02.384Z,10.62
2018-03-30T09:52:02.237Z,10.78
2018-03-30T09:53:55.021Z,11.08
2018-03-30T09:54:54.882Z,11.12
2018-03-30T09:56:47.641Z,11.22
2018-03-30T09:57:47.529Z,11.34
2018-03-30T09:59:40.301Z,11.37
2018-03-30T10:00:40.185Z,11.31
2018-03-30T10:02:32.942Z,11.22
2018-03-30T10:03:32.819Z,11.22
2018-03-30T10:05:25.669Z,11.09
2018-03-30T10:06:25.591Z,11.13
2018-03-30T10:08:18.332Z,11.08
2018-03-30T10:09:18.221Z,11.12
2018-03-30T10:11:10.990Z,11.12
2018-03-30T10:12:10.888Z,11.27
2018-03-30T10:14:03.626Z,11.54
2018-03-30T10:15:03.514Z,11.62
2018-03-30T10:18:09.306Z,11.69
2018-03-30T10:20:02.212Z,11.73
2018-03-30T10:21:02.129Z,11.79
2018-03-30T10:22:56.380Z,11.91
2018-03-30T10:23:55.993Z,11.97
2018-03-30T10:25:49.089Z,12.03
2018-03-30T10:26:48.529Z,12.07
2018-03-30T10:28:41.635Z,12.18
2018-03-30T10:29:42.504Z,12.17
2018-03-30T10:31:37.282Z,12.47
2018-03-30T10:32:35.283Z,12.50
2018-03-30T10:34:29.259Z,12.50
2018-03-30T10:35:28.803Z,12.55
2018-03-30T10:37:20.758Z,12.58
2018-03-30T10:38:20.462Z,12.53
2018-03-30T10:40:14.823Z,12.76
2018-03-30T10:41:14.646Z,12.88
2018-03-30T10:43:07.413Z,13.11
2018-03-30T10:44:07.300Z,13.04
2018-03-30T10:46:00.054Z,13.08
2018-03-30T10:46:59.963Z,13.11
2018-03-30T10:48:52.706Z,13.20
2018-03-30T10:49:52.588Z,13.30
2018-03-30T10:51:45.847Z,13.21
2018-03-30T10:52:45.777Z,13.26
2018-03-30T10:54:38.610Z,13.29
2018-03-30T10:55:38.494Z,13.42
2018-03-30T10:57:31.797Z,13.51
2018-03-30T10:58:31.674Z,13.64
2018-03-30T11:00:25.348Z,13.78
2018-03-30T11:01:25.244Z,13.73
2018-03-30T11:03:17.980Z,13.72
2018-03-30T11:04:17.870Z,13.55
2018-03-30T11:06:11.244Z,13.05
2018-03-30T11:07:11.061Z,13.02
2018-03-30T11:09:04.292Z,13.01
2018-03-30T11:10:04.211Z,13.09
2018-03-30T11:11:56.976Z,13.30
2018-03-30T11:12:56.858Z,13.32
2018-03-30T11:14:49.728Z,13.29
2018-03-30T11:15:49.585Z,13.24
2018-03-30T11:17:42.363Z,13.14
2018-03-30T11:18:42.243Z,13.19
2018-03-30T11:20:35.109Z,13.09
2018-03-30T11:21:34.984Z,13.19
2018-03-30T11:23:27.759Z,13.38
2018-03-30T11:24:27.667Z,13.55
2018-03-30T11:26:20.495Z,13.43
2018-03-30T11:27:20.380Z,13.40
2018-03-30T11:29:13.183Z,13.54
2018-03-30T11:30:13.027Z,13.30
2018-03-30T11:32:05.889Z,13.29
2018-03-30T11:33:06.291Z,12.95
2018-03-30T11:35:00.237Z,12.50
2018-03-30T11:35:59.763Z,12.17
2018-03-30T11:37:52.950Z,11.95
2018-03-30T11:38:53.367Z,11.85
2018-03-30T11:40:46.046Z,11.79
2018-03-30T11:41:45.167Z,12.05
2018-03-30T11:43:39.156Z,12.32
2018-03-30T11:44:38.514Z,12.40
2018-03-30T11:46:46.958Z,12.65
2018-03-30T11:47:46.855Z,12.73
2018-03-30T11:49:42.600Z,12.93
2018-03-30T11:50:41.091Z,12.90
2018-03-30T11:52:33.911Z,13.05
2018-03-30T11:53:33.476Z,13.08
2018-03-30T11:55:26.215Z,13.19
2018-03-30T11:56:26.099Z,13.32
2018-03-30T11:58:18.844Z,13.54
2018-03-30T11:59:18.995Z,13.63
2018-03-30T12:01:11.655Z,13.91
2018-03-30T12:02:11.562Z,14.00
2018-03-30T12:04:05.699Z,14.08
2018-03-30T12:05:05.578Z,14.21
2018-03-30T12:07:03.958Z,14.30
2018-03-30T12:08:01.445Z,14.49
2018-03-30T12:09:53.339Z,14.86
2018-03-30T12:10:53.229Z,14.95
2018-03-30T12:12:46.291Z,15.03
2018-03-30T12:13:46.990Z,14.87
2018-03-30T12:15:38.741Z,14.37
2018-03-30T12:16:38.679Z,14.12
2018-03-30T12:18:31.382Z,13.97
2018-03-30T12:19:31.283Z,13.80
2018-03-30T12:21:24.031Z,13.97
2018-03-30T12:22:23.989Z,14.03
2018-03-30T12:24:16.800Z,14.01
2018-03-30T12:25:16.879Z,14.04
2018-03-30T12:27:10.005Z,13.94
2018-03-30T12:28:09.512Z,14.04
2018-03-30T12:30:02.284Z,14.04
2018-03-30T12:31:02.207Z,14.09
2018-03-30T12:32:55.101Z,14.12
2018-03-30T12:33:54.917Z,14.11
2018-03-30T12:35:47.778Z,14.26
2018-03-30T12:36:47.681Z,14.45
2018-03-30T12:38:40.963Z,14.69
2018-03-30T12:39:40.841Z,14.67
2018-03-30T12:41:33.694Z,14.97
2018-03-30T12:42:33.633Z,15.14
2018-03-30T12:44:26.852Z,15.22
2018-03-30T12:45:26.758Z,15.23
2018-03-30T12:47:20.016Z,15.01
2018-03-30T12:48:19.918Z,14.74
2018-03-30T12:50:12.772Z,14.37
2018-03-30T12:51:12.653Z,14.23
2018-03-30T12:53:05.516Z,14.16
2018-03-30T12:54:06.055Z,14.05
2018-03-30T12:55:59.904Z,14.05
2018-03-30T12:56:59.702Z,14.12
2018-03-30T12:58:55.537Z,13.88
2018-03-30T12:59:55.554Z,13.91
2018-03-30T13:01:48.685Z,14.00
2018-03-30T13:02:48.151Z,14.05
2018-03-30T13:04:41.003Z,14.13
2018-03-30T13:05:40.918Z,14.01
2018-03-30T13:07:34.178Z,13.78
2018-03-30T13:08:34.097Z,13.78
2018-03-30T13:10:28.445Z,13.64
2018-03-30T13:11:28.304Z,13.51
2018-03-30T13:13:21.097Z,13.75
2018-03-30T13:14:21.018Z,13.76
2018-03-30T13:16:13.859Z,13.96
2018-03-30T13:17:13.771Z,13.93
2018-03-30T13:19:07.072Z,13.85
2018-03-30T13:20:06.938Z,13.76
2018-03-30T13:21:59.743Z,13.64
2018-03-30T13:22:59.660Z,13.67
2018-03-30T13:24:52.921Z,13.71
2018-03-30T13:25:52.822Z,13.71
2018-03-30T13:27:46.086Z,13.78
2018-03-30T13:28:46.000Z,13.64
2018-03-30T13:30:38.844Z,13.58
2018-03-30T13:31:38.850Z,13.57
2018-03-30T13:33:31.592Z,13.63
2018-03-30T13:34:31.463Z,13.79
2018-03-30T13:36:24.263Z,13.82
2018-03-30T13:37:24.123Z,13.71
2018-03-30T13:39:17.372Z,13.73
2018-03-30T13:40:17.295Z,13.67
2018-03-30T13:42:10.160Z,13.67
2018-03-30T13:43:10.030Z,13.58
2018-03-30T13:45:02.775Z,13.63
2018-03-30T13:46:02.688Z,13.75
2018-03-30T13:47:55.517Z,14.05
2018-03-30T13:48:55.415Z,14.23
2018-03-30T13:50:48.672Z,14.71
2018-03-30T13:51:48.578Z,14.73
2018-03-30T13:53:41.352Z,14.46
2018-03-30T13:54:41.237Z,14.36
2018-03-30T13:56:34.133Z,14.38
2018-03-30T13:57:33.979Z,14.33
2018-03-30T13:59:26.850Z,14.26
2018-03-30T14:00:26.738Z,14.16
2018-03-30T14:02:19.587Z,14.38
2018-03-30T14:03:19.475Z,14.44
2018-03-30T14:05:12.336Z,14.36
2018-03-30T14:06:12.222Z,14.41
2018-03-30T14:08:05.010Z,14.22
2018-03-30T14:09:04.906Z,14.11
2018-03-30T14:10:57.748Z,14.12
2018-03-30T14:11:57.663Z,14.13
2018-03-30T14:13:50.483Z,14.22
2018-03-30T14:14:50.373Z,14.26
2018-03-30T14:16:44.736Z,14.19
2018-03-30T14:17:44.568Z,14.26
2018-03-30T14:19:37.428Z,14.19
2018-03-30T14:20:37.325Z,14.33
2018-03-30T14:22:30.164Z,14.11
2018-03-30T14:23:30.095Z,14.09
2018-03-30T14:25:22.948Z,13.98
2018-03-30T14:26:22.816Z,13.91
2018-03-30T14:28:16.198Z,13.91
2018-03-30T14:29:16.067Z,14.00
2018-03-30T14:31:09.836Z,14.09
2018-03-30T14:32:08.826Z,14.01
2018-03-30T14:34:03.704Z,14.22
2018-03-30T14:35:03.021Z,14.21
2018-03-30T14:36:56.132Z,14.26
2018-03-30T14:37:56.214Z,14.30
2018-03-30T14:39:48.991Z,14.37
2018-03-30T14:40:48.555Z,14.36
2018-03-30T14:42:41.277Z,14.19
2018-03-30T14:43:41.155Z,14.09
2018-03-30T14:45:34.945Z,13.98
2018-03-30T14:46:34.843Z,14.08
2018-03-30T14:48:27.733Z,14.12
2018-03-30T14:49:27.565Z,14.16
2018-03-30T14:51:20.473Z,14.12
2018-03-30T14:52:20.353Z,13.96
2018-03-30T14:54:13.582Z,14.12
2018-03-30T14:55:13.474Z,14.04
2018-03-30T14:57:06.231Z,14.01
2018-03-30T14:58:06.124Z,13.98
2018-03-30T14:59:58.993Z,13.78
2018-03-30T15:00:58.881Z,13.61
2018-03-30T15:02:51.828Z,13.67
2018-03-30T15:03:51.673Z,13.96
2018-03-30T15:05:44.377Z,13.98
2018-03-30T15:06:44.284Z,14.13
2018-03-30T15:08:37.156Z,14.05
2018-03-30T15:09:37.011Z,14.05
2018-03-30T15:11:29.779Z,13.96
2018-03-30T15:12:29.678Z,13.90
2018-03-30T15:14:22.534Z,13.80
2018-03-30T15:15:22.441Z,13.83
2018-03-30T15:17:15.337Z,13.83
2018-03-30T15:18:15.206Z,13.91
2018-03-30T15:20:08.025Z,13.88
2018-03-30T15:21:07.922Z,13.80
2018-03-30T15:23:00.761Z,13.71
2018-03-30T15:24:00.736Z,13.67
2018-03-30T15:25:53.455Z,13.51
2018-03-30T15:26:53.312Z,13.38
2018-03-30T15:28:46.687Z,13.38
2018-03-30T15:29:46.599Z,13.30
2018-03-30T15:31:39.442Z,13.30
2018-03-30T15:32:39.468Z,13.26
2018-03-30T15:34:35.144Z,13.30
2018-03-30T15:35:35.078Z,13.19
2018-03-30T15:37:29.082Z,13.01
2018-03-30T15:38:28.771Z,13.09
2018-03-30T15:40:21.565Z,12.95
2018-03-30T15:41:21.360Z,12.95
2018-03-30T15:43:14.208Z,12.95
2018-03-30T15:44:14.100Z,12.98
2018-03-30T15:46:07.073Z,12.98
2018-03-30T15:47:06.857Z,12.96
2018-03-30T15:48:59.750Z,12.95
2018-03-30T15:49:59.673Z,12.90
2018-03-30T15:51:53.234Z,12.73
2018-03-30T15:52:52.861Z,12.88
2018-03-30T15:54:46.611Z,12.87
2018-03-30T15:55:46.337Z,12.79
2018-03-30T15:57:39.182Z,12.65
2018-03-30T15:58:39.118Z,12.50
2018-03-30T16:00:32.379Z,12.48
2018-03-30T16:01:32.364Z,12.44
2018-03-30T16:03:25.150Z,12.41
2018-03-30T16:04:26.010Z,12.38
2018-03-30T16:06:17.758Z,12.36
2018-03-30T16:07:17.653Z,12.35
2018-03-30T16:09:10.768Z,12.38
2018-03-30T16:10:10.395Z,12.40
2018-03-30T16:12:03.249Z,12.36
2018-03-30T16:13:03.407Z,12.46
2018-03-30T16:14:56.396Z,12.28
2018-03-30T16:15:56.296Z,12.26
2018-03-30T16:17:49.062Z,12.35
2018-03-30T16:18:48.943Z,12.33
2018-03-30T16:20:42.759Z,12.33
2018-03-30T16:21:42.614Z,12.33
2018-03-30T16:23:35.652Z,12.32
2018-03-30T16:24:35.382Z,12.38
2018-03-30T16:26:28.133Z,12.18
2018-03-30T16:27:28.032Z,12.17
2018-03-30T16:29:21.020Z,12.10
2018-03-30T16:30:20.802Z,12.14
2018-03-30T16:32:13.641Z,12.03
2018-03-30T16:33:13.408Z,11.97
2018-03-30T16:35:06.241Z,11.96
2018-03-30T16:36:06.246Z,11.91
2018-03-30T16:37:58.912Z,11.87
2018-03-30T16:38:58.798Z,11.77
2018-03-30T16:40:51.669Z,11.73
2018-03-30T16:41:51.572Z,11.73
2018-03-30T16:43:44.345Z,11.61
2018-03-30T16:44:44.239Z,11.64
2018-03-30T16:46:36.989Z,11.59
2018-03-30T16:47:36.910Z,11.46
2018-03-30T16:49:30.390Z,11.48
2018-03-30T16:50:29.591Z,11.37
2018-03-30T16:52:22.240Z,11.31
2018-03-30T16:53:22.243Z,11.28
2018-03-30T16:55:15.435Z,11.20
2018-03-30T16:56:15.426Z,11.22
2018-03-30T16:58:08.849Z,11.13
2018-03-30T16:59:08.563Z,11.08
2018-03-30T17:01:01.705Z,11.05
2018-03-30T17:02:01.357Z,11.15
2018-03-30T17:03:54.243Z,11.15
2018-03-30T17:04:54.300Z,11.09
2018-03-30T17:06:47.752Z,11.00
2018-03-30T17:07:47.449Z,11.01
2018-03-30T17:09:58.463Z,10.98
2018-03-30T17:10:56.933Z,10.86
2018-03-30T17:12:49.887Z,10.95
2018-03-30T17:13:49.517Z,10.83
2018-03-30T17:15:42.779Z,10.73
2018-03-30T17:16:42.681Z,10.76
2018-03-30T17:18:47.169Z,10.72
2018-03-30T17:19:47.027Z,10.68
2018-03-30T17:21:39.954Z,10.70
2018-03-30T17:22:39.833Z,10.61
2018-03-30T17:24:32.836Z,10.58
2018-03-30T17:25:32.562Z,10.52
2018-03-30T17:27:25.370Z,10.54
2018-03-30T17:28:25.254Z,10.52
2018-03-30T17:30:29.814Z,10.46
2018-03-30T17:31:18.012Z,10.41
2018-03-30T17:33:10.945Z,10.17
2018-03-30T17:34:10.744Z,10.12
2018-03-30T17:36:03.664Z,10.10
2018-03-30T17:37:03.615Z,10.12
2018-03-30T17:38:58.008Z,9.94
2018-03-30T17:39:57.796Z,9.96
2018-03-30T17:41:50.950Z,9.87
2018-03-30T17:42:50.852Z,9.85
2018-03-30T17:44:44.229Z,9.75
2018-03-30T17:45:44.111Z,9.83
2018-03-30T17:47:36.920Z,9.84
2018-03-30T17:48:36.733Z,9.78
2018-03-30T17:50:31.193Z,9.75
2018-03-30T17:51:30.935Z,9.69
2018-03-30T17:53:23.676Z,9.69
2018-03-30T17:54:23.637Z,9.77
2018-03-30T17:56:16.646Z,9.70
2018-03-30T17:57:16.578Z,9.67
2018-03-30T17:59:10.001Z,9.65
2018-03-30T18:00:09.105Z,9.70
2018-03-30T18:02:03.435Z,9.70
2018-03-30T18:03:03.279Z,9.62
2018-03-30T18:04:56.201Z,9.54
2018-03-30T18:05:56.152Z,9.54
2018-03-30T18:07:48.984Z,9.50
2018-03-30T18:08:48.847Z,9.50
2018-03-30T18:10:42.148Z,9.47
2018-03-30T18:11:42.005Z,9.42
2018-03-30T18:13:35.343Z,9.51
2018-03-30T18:14:35.192Z,9.40
2018-03-30T18:16:27.916Z,9.41
2018-03-30T18:17:28.015Z,9.48
2018-03-30T18:19:20.762Z,9.42
2018-03-30T18:20:20.651Z,9.41
2018-03-30T18:22:13.381Z,9.33
2018-03-30T18:23:13.321Z,9.34
2018-03-30T18:25:07.016Z,9.36
2018-03-30T18:26:06.880Z,9.32
2018-03-30T18:28:00.749Z,9.24
2018-03-30T18:28:59.770Z,9.26
2018-03-30T18:30:52.650Z,9.26
2018-03-30T18:31:52.479Z,9.27
2018-03-30T18:33:45.741Z,9.19
2018-03-30T18:34:45.656Z,9.18
2018-03-30T18:36:38.512Z,9.18
2018-03-30T18:37:38.544Z,9.12
2018-03-30T18:39:31.731Z,9.15
2018-03-30T18:40:31.608Z,9.18
2018-03-30T18:42:24.414Z,9.14
2018-03-30T18:43:24.392Z,9.12
2018-03-30T18:45:17.085Z,9.14
2018-03-30T18:46:16.952Z,9.18
2018-03-30T18:48:09.826Z,9.09
2018-03-30T18:49:09.702Z,9.03
2018-03-30T18:51:02.441Z,9.01
2018-03-30T18:52:02.356Z,8.99